KBNO/BNO METAR and TAF weather

Enter ICAO airport designator
Station Type Date Time Source
KBNO METAR 2020/11/27 13:53 UTC NOAA

KBNO 271353Z AUTO 27003KT 10SM CLR M11/M13 A3039 RMK AO2 SLP336 I1000 T11061133


Station Type Date Time Source
KBNO Decoded METAR 2020/11/27 13:53 UTC NOAA

BURNS MUNICIPAL AIRPORT, OR, United States (KBNO) 43-36N 118-57W 1264M
Nov 27, 2020 - 08:53 AM EST / 2020.11.27 1353 UTC
Wind: from the W (270 degrees) at 3 MPH (3 KT):0
Visibility: 10 mile(s):0
Sky conditions: clear
Temperature: 12.9 F (-10.6 C)
Dew Point: 8.1 F (-13.3 C)
Relative Humidity: 80%
Pressure (altimeter): 30.39 in. Hg (1029 hPa)
ob: KBNO 271353Z AUTO 27003KT 10SM CLR M11/M13 A3039 RMK AO2 SLP336 I1000 T11061133
cycle: 14

Station Type Date Time Source
KBNO TAF 2020/11/27 13:12 UTC NOAA

TAF
AMD KBNO 271309Z 2713/2812 VRB03KT P6SM SKC
FM271800 07005KT P6SM SKC

Example: see airport list